sensor_id;sensor_type;location;lat;lon;timestamp;pressure;altitude;pressure_sealevel;temperature;humidity
28310;BME280;15571;50.974;13.936;2023-11-19T00:00:04;100222.31;;;8.06;100.00
28310;BME280;15571;50.974;13.936;2023-11-19T00:03:11;100215.34;;;8.02;100.00
28310;BME280;15571;50.974;13.936;2023-11-19T00:06:13;100223.16;;;8.03;100.00
28310;BME280;15571;50.974;13.936;2023-11-19T00:09:17;100219.69;;;8.03;100.00
28310;BME280;15571;50.974;13.936;2023-11-19T00:12:21;100204.06;;;8.07;100.00
28310;BME280;15571;50.974;13.936;2023-11-19T00:15:23;100192.75;;;8.01;100.00
28310;BME280;15571;50.974;13.936;2023-11-19T00:18:25;100178.03;;;8.14;100.00
28310;BME280;15571;50.974;13.936;2023-11-19T00:21:28;100155.41;;;8.13;100.00
28310;BME280;15571;50.974;13.936;2023-11-19T00:24:30;100164.06;;;8.02;100.00
28310;BME280;15571;50.974;13.936;2023-11-19T00:27:34;100150.16;;;7.97;100.00
28310;BME280;15571;50.974;13.936;2023-11-19T00:30:36;100150.16;;;8.05;100.00
28310;BME280;15571;50.974;13.936;2023-11-19T00:33:38;100134.50;;;7.97;100.00
28310;BME280;15571;50.974;13.936;2023-11-19T00:36:40;100134.50;;;7.97;100.00
28310;BME280;15571;50.974;13.936;2023-11-19T00:39:42;100131.91;;;7.92;100.00
28310;BME280;15571;50.974;13.936;2023-11-19T00:42:47;100129.28;;;7.92;100.00
28310;BME280;15571;50.974;13.936;2023-11-19T00:45:50;100123.25;;;8.03;100.00
28310;BME280;15571;50.974;13.936;2023-11-19T00:48:52;100121.44;;;7.89;100.00
28310;BME280;15571;50.974;13.936;2023-11-19T00:51:54;100106.66;;;7.88;100.00
28310;BME280;15571;50.974;13.936;2023-11-19T00:54:56;100107.47;;;7.75;100.00
28310;BME280;15571;50.974;13.936;2023-11-19T00:57:59;100098.00;;;7.89;100.00
28310;BME280;15571;50.974;13.936;2023-11-19T01:01:01;100099.69;;;7.81;100.00
28310;BME280;15571;50.974;13.936;2023-11-19T01:04:03;100095.34;;;7.80;100.00
28310;BME280;15571;50.974;13.936;2023-11-19T01:07:07;100095.34;;;7.78;100.00
28310;BME280;15571;50.974;13.936;2023-11-19T01:10:15;100088.41;;;7.79;100.00
28310;BME280;15571;50.974;13.936;2023-11-19T01:13:18;100079.75;;;7.95;100.00
28310;BME280;15571;50.974;13.936;2023-11-19T01:16:23;100065.88;;;8.00;100.00
28310;BME280;15571;50.974;13.936;2023-11-19T01:19:25;100060.66;;;7.97;100.00
28310;BME280;15571;50.974;13.936;2023-11-19T01:22:32;100044.97;;;7.87;100.00
28310;BME280;15571;50.974;13.936;2023-11-19T01:25:39;100036.31;;;7.87;100.00
28310;BME280;15571;50.974;13.936;2023-11-19T01:28:42;100011.94;;;7.77;100.00
28310;BME280;15571;50.974;13.936;2023-11-19T01:31:46;100013.63;;;7.59;100.00
28310;BME280;15571;50.974;13.936;2023-11-19T01:34:48;100015.44;;;7.82;100.00
28310;BME280;15571;50.974;13.936;2023-11-19T01:37:52;100007.63;;;7.82;100.00
28310;BME280;15571;50.974;13.936;2023-11-19T01:40:55;100009.38;;;7.78;100.00
28310;BME280;15571;50.974;13.936;2023-11-19T01:43:59;100008.47;;;7.78;100.00
28310;BME280;15571;50.974;13.936;2023-11-19T01:47:00;99997.19;;;7.73;100.00
28310;BME280;15571;50.974;13.936;2023-11-19T01:50:03;100001.44;;;7.46;100.00
28310;BME280;15571;50.974;13.936;2023-11-19T01:53:09;99992.81;;;7.59;100.00
28310;BME280;15571;50.974;13.936;2023-11-19T01:56:11;99993.72;;;7.74;100.00
28310;BME280;15571;50.974;13.936;2023-11-19T01:59:16;99971.09;;;7.65;100.00
28310;BME280;15571;50.974;13.936;2023-11-19T02:02:18;99966.78;;;7.67;100.00
28310;BME280;15571;50.974;13.936;2023-11-19T02:05:21;99961.59;;;7.87;100.00
28310;BME280;15571;50.974;13.936;2023-11-19T02:08:23;99940.75;;;7.93;100.00
28310;BME280;15571;50.974;13.936;2023-11-19T02:11:26;99937.28;;;8.01;100.00
28310;BME280;15571;50.974;13.936;2023-11-19T02:14:34;99925.97;;;8.03;100.00
28310;BME280;15571;50.974;13.936;2023-11-19T02:17:36;99911.22;;;8.10;100.00
28310;BME280;15571;50.974;13.936;2023-11-19T02:20:39;99897.31;;;8.08;100.00
28310;BME280;15571;50.974;13.936;2023-11-19T02:23:44;99908.59;;;8.13;100.00
28310;BME280;15571;50.974;13.936;2023-11-19T02:26:47;99912.94;;;8.05;100.00
28310;BME280;15571;50.974;13.936;2023-11-19T02:29:54;99905.13;;;8.11;100.00
28310;BME280;15571;50.974;13.936;2023-11-19T02:32:57;99890.34;;;8.16;100.00
28310;BME280;15571;50.974;13.936;2023-11-19T02:36:01;99870.34;;;8.23;100.00
28310;BME280;15571;50.974;13.936;2023-11-19T02:39:07;99866.88;;;8.27;100.00
28310;BME280;15571;50.974;13.936;2023-11-19T02:42:12;99857.31;;;8.31;100.00
28310;BME280;15571;50.974;13.936;2023-11-19T02:45:16;99850.31;;;8.33;100.00
28310;BME280;15571;50.974;13.936;2023-11-19T02:48:18;99846.84;;;8.37;100.00
28310;BME280;15571;50.974;13.936;2023-11-19T02:51:22;99845.13;;;8.30;100.00
28310;BME280;15571;50.974;13.936;2023-11-19T02:54:24;99836.41;;;8.29;100.00
28310;BME280;15571;50.974;13.936;2023-11-19T02:57:30;99818.16;;;8.35;100.00
28310;BME280;15571;50.974;13.936;2023-11-19T03:00:33;99822.50;;;8.46;100.00
28310;BME280;15571;50.974;13.936;2023-11-19T03:03:38;99810.34;;;8.49;100.00
28310;BME280;15571;50.974;13.936;2023-11-19T03:06:41;99785.94;;;8.53;100.00
28310;BME280;15571;50.974;13.936;2023-11-19T03:09:43;99778.16;;;8.52;100.00
28310;BME280;15571;50.974;13.936;2023-11-19T03:12:45;99773.78;;;8.52;100.00
28310;BME280;15571;50.974;13.936;2023-11-19T03:15:48;99769.44;;;8.50;100.00
28310;BME280;15571;50.974;13.936;2023-11-19T03:18:51;99768.56;;;8.43;100.00
28310;BME280;15571;50.974;13.936;2023-11-19T03:21:54;99755.59;;;8.35;100.00
28310;BME280;15571;50.974;13.936;2023-11-19T03:24:56;99759.94;;;8.36;100.00
28310;BME280;15571;50.974;13.936;2023-11-19T03:27:58;99761.66;;;8.36;100.00
28310;BME280;15571;50.974;13.936;2023-11-19T03:31:01;99772.94;;;8.41;100.00
28310;BME280;15571;50.974;13.936;2023-11-19T03:34:09;99758.16;;;8.40;100.00
28310;BME280;15571;50.974;13.936;2023-11-19T03:37:11;99752.94;;;8.41;100.00
28310;BME280;15571;50.974;13.936;2023-11-19T03:40:17;99761.59;;;8.54;100.00
28310;BME280;15571;50.974;13.936;2023-11-19T03:43:20;99757.25;;;8.53;100.00
28310;BME280;15571;50.974;13.936;2023-11-19T03:46:23;99730.34;;;8.51;100.00
28310;BME280;15571;50.974;13.936;2023-11-19T03:49:25;99719.81;;;8.64;100.00
28310;BME280;15571;50.974;13.936;2023-11-19T03:52:27;99723.34;;;8.56;100.00
28310;BME280;15571;50.974;13.936;2023-11-19T03:55:29;99717.25;;;8.57;100.00
28310;BME280;15571;50.974;13.936;2023-11-19T03:58:31;99707.69;;;8.53;100.00
28310;BME280;15571;50.974;13.936;2023-11-19T04:01:37;99708.53;;;8.60;100.00
28310;BME280;15571;50.974;13.936;2023-11-19T04:04:40;99696.38;;;8.54;100.00
28310;BME280;15571;50.974;13.936;2023-11-19T04:07:44;99691.19;;;8.47;100.00
28310;BME280;15571;50.974;13.936;2023-11-19T04:10:46;99679.88;;;8.52;100.00
28310;BME280;15571;50.974;13.936;2023-11-19T04:13:48;99684.25;;;8.49;100.00
28310;BME280;15571;50.974;13.936;2023-11-19T04:16:51;99664.28;;;8.37;100.00
28310;BME280;15571;50.974;13.936;2023-11-19T04:19:53;99681.66;;;8.35;100.00
28310;BME280;15571;50.974;13.936;2023-11-19T04:22:56;99669.53;;;8.31;100.00
28310;BME280;15571;50.974;13.936;2023-11-19T04:25:57;99657.31;;;8.39;100.00
28310;BME280;15571;50.974;13.936;2023-11-19T04:29:01;99666.88;;;8.41;100.00
28310;BME280;15571;50.974;13.936;2023-11-19T04:32:05;99662.50;;;8.47;100.00
28310;BME280;15571;50.974;13.936;2023-11-19T04:35:08;99639.94;;;8.38;100.00
28310;BME280;15571;50.974;13.936;2023-11-19T04:38:11;99642.56;;;8.36;100.00
28310;BME280;15571;50.974;13.936;2023-11-19T04:41:13;99644.25;;;8.44;100.00
28310;BME280;15571;50.974;13.936;2023-11-19T04:44:15;99653.94;;;8.21;100.00
28310;BME280;15571;50.974;13.936;2023-11-19T04:47:19;99658.28;;;8.24;100.00
28310;BME280;15571;50.974;13.936;2023-11-19T04:50:21;99638.25;;;8.28;100.00
28310;BME280;15571;50.974;13.936;2023-11-19T04:53:23;99627.78;;;8.37;100.00
28310;BME280;15571;50.974;13.936;2023-11-19T04:56:25;99621.69;;;8.36;100.00
28310;BME280;15571;50.974;13.936;2023-11-19T04:59:27;99633.00;;;8.34;100.00
28310;BME280;15571;50.974;13.936;2023-11-19T05:02:30;99627.81;;;8.28;100.00
28310;BME280;15571;50.974;13.936;2023-11-19T05:05:32;99616.44;;;8.43;100.00
28310;BME280;15571;50.974;13.936;2023-11-19T05:08:34;99613.84;;;8.38;100.00
28310;BME280;15571;50.974;13.936;2023-11-19T05:11:37;99619.91;;;8.43;100.00
28310;BME280;15571;50.974;13.936;2023-11-19T05:14:39;99620.81;;;8.39;100.00
28310;BME280;15571;50.974;13.936;2023-11-19T05:17:45;99621.69;;;8.38;100.00
28310;BME280;15571;50.974;13.936;2023-11-19T05:20:48;99608.66;;;8.35;100.00
28310;BME280;15571;50.974;13.936;2023-11-19T05:23:49;99598.22;;;8.35;100.00
28310;BME280;15571;50.974;13.936;2023-11-19T05:26:53;99582.56;;;8.38;100.00
28310;BME280;15571;50.974;13.936;2023-11-19T05:29:58;99573.00;;;8.34;100.00
28310;BME280;15571;50.974;13.936;2023-11-19T05:33:03;99580.88;;;8.28;100.00
28310;BME280;15571;50.974;13.936;2023-11-19T05:36:06;99570.47;;;8.24;100.00
28310;BME280;15571;50.974;13.936;2023-11-19T05:39:08;99570.47;;;8.24;100.00
28310;BME280;15571;50.974;13.936;2023-11-19T05:42:11;99558.22;;;8.36;100.00
28310;BME280;15571;50.974;13.936;2023-11-19T05:45:13;99547.94;;;8.17;100.00
28310;BME280;15571;50.974;13.936;2023-11-19T05:48:16;99544.50;;;8.10;100.00
28310;BME280;15571;50.974;13.936;2023-11-19T05:51:18;99543.56;;;8.21;100.00
28310;BME280;15571;50.974;13.936;2023-11-19T05:54:20;99548.72;;;8.32;100.00
28310;BME280;15571;50.974;13.936;2023-11-19T05:57:22;99536.50;;;8.37;100.00
28310;BME280;15571;50.974;13.936;2023-11-19T06:00:25;99518.38;;;8.18;100.00
28310;BME280;15571;50.974;13.936;2023-11-19T06:03:29;99516.53;;;8.31;100.00
28310;BME280;15571;50.974;13.936;2023-11-19T06:06:31;99518.31;;;8.24;100.00
28310;BME280;15571;50.974;13.936;2023-11-19T06:09:36;99523.50;;;8.31;100.00
28310;BME280;15571;50.974;13.936;2023-11-19T06:12:38;99519.19;;;8.23;100.00
28310;BME280;15571;50.974;13.936;2023-11-19T06:15:41;99515.72;;;8.26;100.00
28310;BME280;15571;50.974;13.936;2023-11-19T06:18:45;99512.22;;;8.25;100.00
28310;BME280;15571;50.974;13.936;2023-11-19T06:21:46;99512.19;;;8.33;100.00
28310;BME280;15571;50.974;13.936;2023-11-19T06:24:49;99506.16;;;8.26;100.00
28310;BME280;15571;50.974;13.936;2023-11-19T06:27:51;99499.19;;;8.29;100.00
28310;BME280;15571;50.974;13.936;2023-11-19T06:30:53;99486.06;;;8.38;100.00
28310;BME280;15571;50.974;13.936;2023-11-19T06:33:56;99467.81;;;8.38;100.00
28310;BME280;15571;50.974;13.936;2023-11-19T06:36:58;99452.16;;;8.38;100.00
28310;BME280;15571;50.974;13.936;2023-11-19T06:40:00;99446.00;;;8.50;100.00
28310;BME280;15571;50.974;13.936;2023-11-19T06:43:02;99435.66;;;8.39;100.00
28310;BME280;15571;50.974;13.936;2023-11-19T06:46:05;99449.56;;;8.35;100.00
28310;BME280;15571;50.974;13.936;2023-11-19T06:49:09;99464.31;;;8.42;100.00
28310;BME280;15571;50.974;13.936;2023-11-19T06:52:11;99466.91;;;8.44;100.00
28310;BME280;15571;50.974;13.936;2023-11-19T06:55:12;99455.66;;;8.34;100.00
28310;BME280;15571;50.974;13.936;2023-11-19T06:58:17;99456.47;;;8.44;100.00
28310;BME280;15571;50.974;13.936;2023-11-19T07:01:19;99458.19;;;8.43;100.00
28310;BME280;15571;50.974;13.936;2023-11-19T07:04:23;99460.78;;;8.43;100.00
28310;BME280;15571;50.974;13.936;2023-11-19T07:07:25;99462.56;;;8.39;100.00
28310;BME280;15571;50.974;13.936;2023-11-19T07:10:26;99459.97;;;8.39;100.00
28310;BME280;15571;50.974;13.936;2023-11-19T07:13:30;99444.38;;;8.33;100.00
28310;BME280;15571;50.974;13.936;2023-11-19T07:16:32;99462.66;;;8.32;100.00
28310;BME280;15571;50.974;13.936;2023-11-19T07:19:36;99453.03;;;8.40;100.00
28310;BME280;15571;50.974;13.936;2023-11-19T07:22:39;99472.06;;;8.50;100.00
28310;BME280;15571;50.974;13.936;2023-11-19T07:25:42;99472.97;;;8.44;100.00
28310;BME280;15571;50.974;13.936;2023-11-19T07:28:47;99479.00;;;8.52;100.00
28310;BME280;15571;50.974;13.936;2023-11-19T07:31:49;99462.59;;;8.41;100.00
28310;BME280;15571;50.974;13.936;2023-11-19T07:34:52;99475.56;;;8.44;100.00
28310;BME280;15571;50.974;13.936;2023-11-19T07:37:55;99486.88;;;8.49;100.00
28310;BME280;15571;50.974;13.936;2023-11-19T07:40:58;99482.53;;;8.48;100.00
28310;BME280;15571;50.974;13.936;2023-11-19T07:43:59;99480.75;;;8.53;100.00
28310;BME280;15571;50.974;13.936;2023-11-19T07:47:01;99472.84;;;8.64;100.00
28310;BME280;15571;50.974;13.936;2023-11-19T07:50:06;99469.25;;;8.73;100.00
28310;BME280;15571;50.974;13.936;2023-11-19T07:53:08;99464.16;;;8.61;100.00
28310;BME280;15571;50.974;13.936;2023-11-19T07:56:10;99467.69;;;8.56;100.00
28310;BME280;15571;50.974;13.936;2023-11-19T07:59:11;99471.16;;;8.59;100.00
28310;BME280;15571;50.974;13.936;2023-11-19T08:02:13;99480.66;;;8.63;100.00
28310;BME280;15571;50.974;13.936;2023-11-19T08:05:17;99481.41;;;8.77;100.00
28310;BME280;15571;50.974;13.936;2023-11-19T08:08:19;99469.19;;;8.79;100.00
28310;BME280;15571;50.974;13.936;2023-11-19T08:11:21;99479.63;;;8.79;100.00
28310;BME280;15571;50.974;13.936;2023-11-19T08:14:23;99483.16;;;8.75;100.00
28310;BME280;15571;50.974;13.936;2023-11-19T08:17:25;99481.41;;;8.74;100.00
28310;BME280;15571;50.974;13.936;2023-11-19T08:20:28;99473.59;;;8.74;100.00
28310;BME280;15571;50.974;13.936;2023-11-19T08:23:30;99468.09;;;9.00;100.00
28310;BME280;15571;50.974;13.936;2023-11-19T08:26:32;99463.81;;;8.96;100.00
28310;BME280;15571;50.974;13.936;2023-11-19T08:29:34;99460.50;;;8.80;100.00
28310;BME280;15571;50.974;13.936;2023-11-19T08:32:38;99464.75;;;8.91;100.00
28310;BME280;15571;50.974;13.936;2023-11-19T08:35:41;99457.75;;;8.94;100.00
28310;BME280;15571;50.974;13.936;2023-11-19T08:38:46;99445.53;;;8.95;100.00
28310;BME280;15571;50.974;13.936;2023-11-19T08:41:48;99453.03;;;9.23;100.00
28310;BME280;15571;50.974;13.936;2023-11-19T08:44:51;99436.63;;;9.13;100.00
28310;BME280;15571;50.974;13.936;2023-11-19T08:47:55;99451.28;;;9.25;100.00
28310;BME280;15571;50.974;13.936;2023-11-19T08:50:58;99449.31;;;9.42;100.00
28310;BME280;15571;50.974;13.936;2023-11-19T08:54:00;99445.09;;;9.32;100.00
28310;BME280;15571;50.974;13.936;2023-11-19T08:57:02;99458.13;;;9.35;100.00
28310;BME280;15571;50.974;13.936;2023-11-19T09:00:06;99434.50;;;9.41;100.00
28310;BME280;15571;50.974;13.936;2023-11-19T09:03:08;99454.28;;;9.61;100.00
28310;BME280;15571;50.974;13.936;2023-11-19T09:06:12;99452.63;;;9.54;100.00
28310;BME280;15571;50.974;13.936;2023-11-19T09:09:14;99455.47;;;9.37;100.00
28310;BME280;15571;50.974;13.936;2023-11-19T09:12:16;99467.66;;;9.39;100.00
28310;BME280;15571;50.974;13.936;2023-11-19T09:15:18;99470.97;;;9.50;100.00
28310;BME280;15571;50.974;13.936;2023-11-19T09:18:20;99471.84;;;9.51;100.00
28310;BME280;15571;50.974;13.936;2023-11-19T09:21:23;99472.75;;;9.48;100.00
28310;BME280;15571;50.974;13.936;2023-11-19T09:24:25;99482.13;;;9.62;100.00
28310;BME280;15571;50.974;13.936;2023-11-19T09:27:27;99476.75;;;9.74;100.00
28310;BME280;15571;50.974;13.936;2023-11-19T09:30:29;99475.94;;;9.71;100.00
28310;BME280;15571;50.974;13.936;2023-11-19T09:33:34;99459.31;;;9.76;100.00
28310;BME280;15571;50.974;13.936;2023-11-19T09:36:37;99473.22;;;9.77;100.00
28310;BME280;15571;50.974;13.936;2023-11-19T09:39:39;99465.31;;;9.81;100.00
28310;BME280;15571;50.974;13.936;2023-11-19T09:42:44;99471.34;;;9.87;100.00
28310;BME280;15571;50.974;13.936;2023-11-19T09:45:49;99469.59;;;9.89;100.00
28310;BME280;15571;50.974;13.936;2023-11-19T09:48:52;99487.34;;;9.65;100.00
28310;BME280;15571;50.974;13.936;2023-11-19T09:51:57;99482.78;;;9.79;100.00
28310;BME280;15571;50.974;13.936;2023-11-19T09:54:59;99487.16;;;9.77;100.00
28310;BME280;15571;50.974;13.936;2023-11-19T09:58:03;99483.47;;;9.91;100.00
28310;BME280;15571;50.974;13.936;2023-11-19T10:01:05;99481.84;;;9.84;100.00
28310;BME280;15571;50.974;13.936;2023-11-19T10:04:12;99465.09;;;9.95;100.00
28310;BME280;15571;50.974;13.936;2023-11-19T10:07:18;99458.91;;;10.01;100.00
28310;BME280;15571;50.974;13.936;2023-11-19T10:10:20;99468.47;;;10.05;100.00
28310;BME280;15571;50.974;13.936;2023-11-19T10:13:25;99468.34;;;10.11;100.00
28310;BME280;15571;50.974;13.936;2023-11-19T10:16:28;99455.19;;;10.18;100.00
28310;BME280;15571;50.974;13.936;2023-11-19T10:19:35;99457.81;;;10.18;100.00
28310;BME280;15571;50.974;13.936;2023-11-19T10:22:39;99458.59;;;10.23;100.00
28310;BME280;15571;50.974;13.936;2023-11-19T10:25:46;99461.91;;;10.34;100.00
28310;BME280;15571;50.974;13.936;2023-11-19T10:28:48;99475.91;;;10.30;100.00
28310;BME280;15571;50.974;13.936;2023-11-19T10:31:56;99460.16;;;10.33;100.00
28310;BME280;15571;50.974;13.936;2023-11-19T10:35:05;99457.47;;;10.39;100.00
28310;BME280;15571;50.974;13.936;2023-11-19T10:38:14;99447.94;;;10.35;100.00
28310;BME280;15571;50.974;13.936;2023-11-19T10:41:26;99445.06;;;10.52;100.00
28310;BME280;15571;50.974;13.936;2023-11-19T10:44:31;99454.66;;;10.52;100.00
28310;BME280;15571;50.974;13.936;2023-11-19T10:47:34;99451.16;;;10.53;100.00
28310;BME280;15571;50.974;13.936;2023-11-19T10:50:36;99448.41;;;10.61;100.00
28310;BME280;15571;50.974;13.936;2023-11-19T10:53:41;99428.13;;;10.70;100.00
28310;BME280;15571;50.974;13.936;2023-11-19T10:56:45;99428.09;;;10.73;100.00
28310;BME280;15571;50.974;13.936;2023-11-19T10:59:52;99411.97;;;10.95;100.00
28310;BME280;15571;50.974;13.936;2023-11-19T11:02:59;99413.38;;;11.12;100.00
28310;BME280;15571;50.974;13.936;2023-11-19T11:06:02;99412.13;;;11.30;100.00
28310;BME280;15571;50.974;13.936;2023-11-19T11:09:06;99425.03;;;11.37;100.00
28310;BME280;15571;50.974;13.936;2023-11-19T11:12:12;99440.47;;;11.51;100.00
28310;BME280;15571;50.974;13.936;2023-11-19T11:15:15;99440.38;;;11.56;100.00
28310;BME280;15571;50.974;13.936;2023-11-19T11:18:22;99434.13;;;11.62;100.00
28310;BME280;15571;50.974;13.936;2023-11-19T11:21:25;99434.78;;;11.72;100.00
28310;BME280;15571;50.974;13.936;2023-11-19T11:24:53;99430.41;;;11.72;100.00
28310;BME280;15571;50.974;13.936;2023-11-19T11:28:04;99429.28;;;11.82;100.00
28310;BME280;15571;50.974;13.936;2023-11-19T11:31:09;99426.34;;;11.96;100.00
28310;BME280;15571;50.974;13.936;2023-11-19T11:37:42;99434.72;;;12.14;100.00
28310;BME280;15571;50.974;13.936;2023-11-19T11:44:07;99434.97;;;12.38;100.00
28310;BME280;15571;50.974;13.936;2023-11-19T11:47:14;99434.75;;;12.47;100.00
28310;BME280;15571;50.974;13.936;2023-11-19T11:50:17;99439.75;;;12.56;100.00
28310;BME280;15571;50.974;13.936;2023-11-19T11:53:20;99423.16;;;12.56;100.00
28310;BME280;15571;50.974;13.936;2023-11-19T11:56:24;99414.97;;;12.67;100.00
28310;BME280;15571;50.974;13.936;2023-11-19T11:59:46;99426.34;;;12.67;100.00
28310;BME280;15571;50.974;13.936;2023-11-19T12:02:48;99407.72;;;12.76;100.00
28310;BME280;15571;50.974;13.936;2023-11-19T12:05:51;99412.41;;;12.65;100.00
28310;BME280;15571;50.974;13.936;2023-11-19T12:08:54;99399.31;;;12.64;100.00
28310;BME280;15571;50.974;13.936;2023-11-19T12:12:07;99382.00;;;12.56;100.00
28310;BME280;15571;50.974;13.936;2023-11-19T12:15:11;99386.91;;;12.69;100.00
28310;BME280;15571;50.974;13.936;2023-11-19T12:18:14;99380.44;;;12.81;100.00
28310;BME280;15571;50.974;13.936;2023-11-19T12:21:30;99379.03;;;13.00;100.00
28310;BME280;15571;50.974;13.936;2023-11-19T12:24:33;99372.66;;;13.09;100.00
28310;BME280;15571;50.974;13.936;2023-11-19T12:27:35;99359.81;;;13.28;100.00
28310;BME280;15571;50.974;13.936;2023-11-19T12:30:38;99359.56;;;13.36;100.00
28310;BME280;15571;50.974;13.936;2023-11-19T12:33:42;99355.34;;;13.60;100.00
28310;BME280;15571;50.974;13.936;2023-11-19T12:36:46;99353.53;;;13.62;100.00
28310;BME280;15571;50.974;13.936;2023-11-19T12:39:48;99339.63;;;13.85;100.00
28310;BME280;15571;50.974;13.936;2023-11-19T12:42:50;99340.13;;;13.97;100.00
28310;BME280;15571;50.974;13.936;2023-11-19T12:45:54;99331.88;;;14.08;100.00
28310;BME280;15571;50.974;13.936;2023-11-19T12:48:57;99336.34;;;14.06;100.00
28310;BME280;15571;50.974;13.936;2023-11-19T12:51:58;99330.31;;;14.02;100.00
28310;BME280;15571;50.974;13.936;2023-11-19T12:55:02;99326.97;;;13.97;100.00
28310;BME280;15571;50.974;13.936;2023-11-19T16:14:38;99366.53;;;12.45;100.00
28310;BME280;15571;50.974;13.936;2023-11-19T16:17:40;99371.91;;;12.41;100.00
28310;BME280;15571;50.974;13.936;2023-11-19T16:20:42;99371.16;;;12.36;100.00
28310;BME280;15571;50.974;13.936;2023-11-19T16:23:48;99378.97;;;12.39;100.00
28310;BME280;15571;50.974;13.936;2023-11-19T16:26:50;99378.13;;;12.38;100.00
28310;BME280;15571;50.974;13.936;2023-11-19T16:29:56;99377.25;;;12.38;100.00
28310;BME280;15571;50.974;13.936;2023-11-19T16:33:01;99380.75;;;12.37;100.00
28310;BME280;15571;50.974;13.936;2023-11-19T16:36:05;99375.53;;;12.37;100.00
28310;BME280;15571;50.974;13.936;2023-11-19T16:39:07;99373.78;;;12.36;100.00
28310;BME280;15571;50.974;13.936;2023-11-19T16:42:11;99378.25;;;12.32;100.00
28310;BME280;15571;50.974;13.936;2023-11-19T16:45:15;99378.44;;;12.26;100.00
28310;BME280;15571;50.974;13.936;2023-11-19T16:48:17;99378.38;;;12.27;100.00
28310;BME280;15571;50.974;13.936;2023-11-19T16:51:18;99392.41;;;12.26;100.00
28310;BME280;15571;50.974;13.936;2023-11-19T16:54:20;99387.25;;;12.23;100.00
28310;BME280;15571;50.974;13.936;2023-11-19T16:57:22;99386.44;;;12.21;100.00
28310;BME280;15571;50.974;13.936;2023-11-19T17:00:25;99382.03;;;12.22;100.00
28310;BME280;15571;50.974;13.936;2023-11-19T17:03:27;99393.53;;;12.16;100.00
28310;BME280;15571;50.974;13.936;2023-11-19T17:06:31;99398.78;;;12.16;100.00
28310;BME280;15571;50.974;13.936;2023-11-19T17:09:35;99405.94;;;12.11;100.00
28310;BME280;15571;50.974;13.936;2023-11-19T17:12:39;99396.22;;;12.14;100.00
28310;BME280;15571;50.974;13.936;2023-11-19T17:15:43;99396.16;;;12.16;100.00
28310;BME280;15571;50.974;13.936;2023-11-19T17:18:48;99401.38;;;12.18;100.00
28310;BME280;15571;50.974;13.936;2023-11-19T17:21:49;99406.63;;;12.18;100.00
28310;BME280;15571;50.974;13.936;2023-11-19T17:24:51;99401.28;;;12.22;100.00
28310;BME280;15571;50.974;13.936;2023-11-19T17:27:53;99401.28;;;12.21;100.00
28310;BME280;15571;50.974;13.936;2023-11-19T17:30:58;99403.91;;;12.22;100.00
28310;BME280;15571;50.974;13.936;2023-11-19T17:34:00;99401.28;;;12.21;100.00
28310;BME280;15571;50.974;13.936;2023-11-19T17:37:03;99394.31;;;12.20;100.00
28310;BME280;15571;50.974;13.936;2023-11-19T17:40:05;99398.94;;;12.10;100.00
28310;BME280;15571;50.974;13.936;2023-11-19T17:43:08;99393.94;;;12.01;100.00
28310;BME280;15571;50.974;13.936;2023-11-19T17:46:11;99388.53;;;12.07;100.00
28310;BME280;15571;50.974;13.936;2023-11-19T17:49:14;99399.00;;;12.07;100.00
28310;BME280;15571;50.974;13.936;2023-11-19T17:52:18;99403.34;;;12.09;100.00
28310;BME280;15571;50.974;13.936;2023-11-19T17:55:21;99393.69;;;12.10;100.00
28310;BME280;15571;50.974;13.936;2023-11-19T17:58:23;99399.00;;;12.07;100.00
28310;BME280;15571;50.974;13.936;2023-11-19T18:01:26;99397.28;;;12.06;100.00
28310;BME280;15571;50.974;13.936;2023-11-19T18:04:28;99394.53;;;12.12;100.00
28310;BME280;15571;50.974;13.936;2023-11-19T18:07:30;99404.13;;;12.13;100.00
28310;BME280;15571;50.974;13.936;2023-11-19T18:10:32;99400.69;;;12.11;100.00
28310;BME280;15571;50.974;13.936;2023-11-19T18:13:34;99404.19;;;12.10;100.00
28310;BME280;15571;50.974;13.936;2023-11-19T18:16:40;99398.88;;;12.13;100.00
28310;BME280;15571;50.974;13.936;2023-11-19T18:19:44;99404.13;;;12.13;100.00
28310;BME280;15571;50.974;13.936;2023-11-19T18:22:48;99402.22;;;12.18;100.00
28310;BME280;15571;50.974;13.936;2023-11-19T18:25:49;99404.03;;;12.16;100.00
28310;BME280;15571;50.974;13.936;2023-11-19T18:28:52;99399.69;;;12.15;100.00
28310;BME280;15571;50.974;13.936;2023-11-19T18:31:56;99400.69;;;12.11;100.00
28310;BME280;15571;50.974;13.936;2023-11-19T18:34:58;99403.53;;;12.02;100.00
28310;BME280;15571;50.974;13.936;2023-11-19T18:38:00;99410.50;;;12.01;100.00
28310;BME280;15571;50.974;13.936;2023-11-19T18:41:01;99406.09;;;12.03;100.00
28310;BME280;15571;50.974;13.936;2023-11-19T18:44:05;99408.72;;;12.05;100.00
28310;BME280;15571;50.974;13.936;2023-11-19T18:47:09;99404.16;;;12.11;100.00
28310;BME280;15571;50.974;13.936;2023-11-19T18:50:11;99414.63;;;12.13;100.00
28310;BME280;15571;50.974;13.936;2023-11-19T18:53:16;99410.22;;;12.13;100.00
28310;BME280;15571;50.974;13.936;2023-11-19T18:56:19;99419.88;;;12.13;100.00
28310;BME280;15571;50.974;13.936;2023-11-19T18:59:21;99420.66;;;12.17;100.00
28310;BME280;15571;50.974;13.936;2023-11-19T19:02:24;99425.03;;;12.16;100.00
28310;BME280;15571;50.974;13.936;2023-11-19T19:05:26;99417.25;;;12.13;100.00
28310;BME280;15571;50.974;13.936;2023-11-19T19:08:28;99417.44;;;12.05;100.00
28310;BME280;15571;50.974;13.936;2023-11-19T19:11:30;99427.06;;;12.05;100.00
28310;BME280;15571;50.974;13.936;2023-11-19T19:14:33;99422.16;;;11.89;100.00